Accueil
METAR-TAF:

METAR-TAF

Aéroports :

Aéroport de Strasbourg-Entzheim

Strasbourg, France

latitude: 48-33N, longitude: 007-38E, altitude: 153 m

Observation

Le bulletin a été fait il y a 16 minutes, à 18:30 UTC
Vent 5 kt de nord/nord-ouest
Température 18°C
Humidité 45%
Pression 1017 hPa
Visibilité 10 km ou plus
pas de nuages en-dessous de 1500 mètres et pas de cumulonimbus.

METAR: LFST 121830Z AUTO 34005KT CAVOK 18/06 Q1017 TEMPO FEW050TCU

Heure: 20:46 (18:46 UTC)

Prévision

Le bulletin a été fait il y a 1 heure et 46 minutes, à 17:00 UTC
Prévision valable du 12 à 18 UTC au 13 à 18 UTC
Vent 7 kt de nord
Visibilité 10 km ou plus
pas de nuages en-dessous de 1500 mètres et pas de cumulonimbus.
Probabilité 30% :
Temporairement
du 12 à 18 UTC au 12 à 20 UTC
Quelques nuages à une hauteur de 5000 ft, Cumulus congestus.

TAF: LFST 121700Z 1218/1318 35007KT CAVOK PROB30 TEMPO 1218/1220 FEW050TCU

Observations et prévisions météorologiques de plus de 4000 aéroports (messages METAR et TAF).

Les stations disponibles sont représentées par des disques jaunes et rouges sur la carte.

Passer la souris dessus pour voir le nom de la station.

Cliquer dessus pour voir les observations et prévisions météorologiques.

Pour changer de carte: cliquez sur les boutons verts avec une croix noire pour zoomer, sur le bouton vert avec un tiret pour effectuer un zoom arrière, ou sur les flèches vertes pour les cartes adjacentes.


METAR-TAF: